createdAt,value
2023-05-05T00:00:01.890Z,71.48
2023-05-05T00:00:10.623Z,71.41
2023-05-05T00:00:28.426Z,71.62
2023-05-05T00:00:36.343Z,71.34
2023-05-05T00:00:43.528Z,71.61
2023-05-05T00:01:03.290Z,71.34
2023-05-05T00:01:10.555Z,71.56
2023-05-05T00:01:20.275Z,71.74
2023-05-05T00:01:36.921Z,71.57
2023-05-05T00:01:44.085Z,71.67
2023-05-05T00:01:51.315Z,71.68
2023-05-05T00:02:08.494Z,71.52
2023-05-05T00:02:16.044Z,71.19
2023-05-05T00:02:23.595Z,71.57
2023-05-05T00:02:41.301Z,71.43
2023-05-05T00:02:50.667Z,71.21
2023-05-05T00:02:58.883Z,71.32
2023-05-05T00:03:13.318Z,71.47
2023-05-05T00:03:21.024Z,71.39
2023-05-05T00:03:29.452Z,71.17
2023-05-05T00:03:44.599Z,71.19
2023-05-05T00:03:52.093Z,71.05
2023-05-05T00:04:02.288Z,71.35
2023-05-05T00:04:18.155Z,70.88
2023-05-05T00:04:25.404Z,70.99
2023-05-05T00:04:34.002Z,71.16
2023-05-05T00:04:51.261Z,70.86
2023-05-05T00:04:59.046Z,70.75
2023-05-05T00:05:07.333Z,70.81
2023-05-05T00:05:21.839Z,70.73
2023-05-05T00:05:31.839Z,70.83
2023-05-05T00:05:40.078Z,70.79
2023-05-05T00:05:57.637Z,70.70
2023-05-05T00:06:05.723Z,70.83
2023-05-05T00:06:13.658Z,70.79
2023-05-05T00:06:28.797Z,70.52
2023-05-05T00:06:36.004Z,70.81
2023-05-05T00:06:43.178Z,70.83
2023-05-05T00:06:58.427Z,70.25
2023-05-05T00:07:08.264Z,70.26
2023-05-05T00:07:15.566Z,70.58
2023-05-05T00:07:29.829Z,70.27
2023-05-05T00:07:37.012Z,70.28
2023-05-05T00:07:44.196Z,70.44
2023-05-05T00:07:59.111Z,70.31
2023-05-05T00:08:14.142Z,69.86
2023-05-05T00:08:21.918Z,70.14
2023-05-05T00:08:36.528Z,70.11
2023-05-05T00:08:44.816Z,70.01
2023-05-05T00:08:54.624Z,69.85
2023-05-05T00:09:01.816Z,70.03
2023-05-05T00:09:16.393Z,70.07
2023-05-05T00:09:23.550Z,70.17
2023-05-05T00:09:37.808Z,69.78
2023-05-05T00:09:44.988Z,70.03
2023-05-05T00:09:59.252Z,69.98
2023-05-05T00:10:07.578Z,69.82
2023-05-05T00:10:22.340Z,69.70
2023-05-05T00:10:32.678Z,69.87
2023-05-05T00:10:42.864Z,69.79
2023-05-05T00:10:51.232Z,69.62
2023-05-05T00:11:05.991Z,69.70
2023-05-05T00:11:13.230Z,69.53
2023-05-05T00:11:30.127Z,69.60
2023-05-05T00:11:37.475Z,69.46
2023-05-05T00:11:44.821Z,69.73
2023-05-05T00:11:52.035Z,69.78
2023-05-05T00:12:07.331Z,69.71
2023-05-05T00:12:14.625Z,69.58
2023-05-05T00:12:34.184Z,69.67
2023-05-05T00:12:41.438Z,69.42
2023-05-05T00:12:49.307Z,69.62
2023-05-05T00:12:56.537Z,69.49
2023-05-05T00:13:11.588Z,69.50
2023-05-05T00:13:19.978Z,69.08
2023-05-05T00:13:34.426Z,69.03
2023-05-05T00:13:41.711Z,68.75
2023-05-05T00:13:51.698Z,69.12
2023-05-05T00:13:58.821Z,68.83
2023-05-05T00:14:14.215Z,68.53
2023-05-05T00:14:21.554Z,68.82
2023-05-05T00:14:35.819Z,68.57
2023-05-05T00:14:43.728Z,68.53
2023-05-05T00:14:58.343Z,68.59
2023-05-05T00:15:08.169Z,68.09
2023-05-05T00:15:15.623Z,67.89
2023-05-05T00:15:22.916Z,67.99
2023-05-05T00:15:41.982Z,68.53
2023-05-05T00:15:52.618Z,68.16
2023-05-05T00:16:00.363Z,68.20
2023-05-05T00:16:08.292Z,68.52
2023-05-05T00:16:15.705Z,68.69
2023-05-05T00:16:23.654Z,68.48
2023-05-05T00:16:51.660Z,68.25
2023-05-05T00:16:58.875Z,68.15
2023-05-05T00:17:06.083Z,68.11
2023-05-05T00:17:13.424Z,68.35
2023-05-05T00:17:22.861Z,68.22
2023-05-05T00:17:30.057Z,68.14
2023-05-05T00:17:56.353Z,68.01
2023-05-05T00:18:03.737Z,68.21
2023-05-05T00:18:11.162Z,68.08
2023-05-05T00:18:18.994Z,67.93
2023-05-05T00:18:26.205Z,68.04
2023-05-05T00:18:34.090Z,67.71
2023-05-05T00:18:59.342Z,67.91
2023-05-05T00:19:06.906Z,67.80
2023-05-05T00:19:16.171Z,67.65
2023-05-05T00:19:25.762Z,67.71
2023-05-05T00:19:33.314Z,67.67
2023-05-05T00:19:41.114Z,67.75
2023-05-05T00:20:07.418Z,67.80
2023-05-05T00:20:15.127Z,67.79
2023-05-05T00:20:23.264Z,67.92
2023-05-05T00:20:30.471Z,67.85
2023-05-05T00:20:37.850Z,67.79
2023-05-05T00:20:47.499Z,67.63
2023-05-05T00:21:09.569Z,67.37
2023-05-05T00:21:16.870Z,67.40
2023-05-05T00:21:28.003Z,67.66
2023-05-05T00:21:35.183Z,67.38
2023-05-05T00:21:42.352Z,67.40
2023-05-05T00:21:51.700Z,67.36
2023-05-05T00:22:10.963Z,67.18
2023-05-05T00:22:18.409Z,67.38
2023-05-05T00:22:33.143Z,67.05
2023-05-05T00:22:40.304Z,67.27
2023-05-05T00:22:47.763Z,67.12
2023-05-05T00:22:54.994Z,67.10
2023-05-05T00:23:19.608Z,67.12
2023-05-05T00:23:26.787Z,67.36
2023-05-05T00:23:34.186Z,67.29
2023-05-05T00:23:41.461Z,67.18
2023-05-05T00:23:48.972Z,67.29
2023-05-05T00:23:56.219Z,67.34
2023-05-05T00:24:29.463Z,67.32
2023-05-05T00:24:36.715Z,67.50
2023-05-05T00:24:44.149Z,67.08
2023-05-05T00:24:51.490Z,67.29
2023-05-05T00:25:01.325Z,67.28
2023-05-05T00:25:09.526Z,67.07
2023-05-05T00:25:31.177Z,67.28
2023-05-05T00:25:39.576Z,67.29
2023-05-05T00:25:47.003Z,67.44
2023-05-05T00:25:54.272Z,67.48
2023-05-05T00:26:01.471Z,67.34
2023-05-05T00:26:18.764Z,67.33
2023-05-05T00:26:37.504Z,67.22
2023-05-05T00:26:44.736Z,67.39
2023-05-05T00:26:51.974Z,67.34
2023-05-05T00:26:59.137Z,67.47
2023-05-05T00:27:06.651Z,67.10
2023-05-05T00:27:23.541Z,67.35
2023-05-05T00:27:40.826Z,67.04
2023-05-05T00:27:48.548Z,66.90
2023-05-05T00:27:56.952Z,66.96
2023-05-05T00:28:07.348Z,67.03
2023-05-05T00:28:14.711Z,67.05
2023-05-05T00:28:29.640Z,67.05
2023-05-05T00:28:39.422Z,66.65
2023-05-05T00:28:55.377Z,66.78
2023-05-05T00:29:03.213Z,67.25
2023-05-05T00:29:10.375Z,67.03
2023-05-05T00:29:17.750Z,66.87
2023-05-05T00:29:32.250Z,66.89
2023-05-05T00:29:41.779Z,67.20
2023-05-05T00:29:59.444Z,66.85
2023-05-05T00:30:08.381Z,66.78
2023-05-05T00:30:15.794Z,66.84
2023-05-05T00:30:23.667Z,66.89
2023-05-05T00:30:39.946Z,66.99
2023-05-05T00:30:47.213Z,66.76
2023-05-05T00:31:01.953Z,67.20
2023-05-05T00:31:09.358Z,67.09
2023-05-05T00:31:19.606Z,67.16
2023-05-05T00:31:27.156Z,66.92
2023-05-05T00:31:41.769Z,66.93
2023-05-05T00:31:51.022Z,67.00
2023-05-05T00:32:05.783Z,67.01
2023-05-05T00:32:12.995Z,67.02
2023-05-05T00:32:20.206Z,67.44
2023-05-05T00:32:27.480Z,67.17
2023-05-05T00:32:42.332Z,67.04
2023-05-05T00:32:52.432Z,67.28
2023-05-05T00:33:07.702Z,67.27
2023-05-05T00:33:14.940Z,67.35
2023-05-05T00:33:22.297Z,67.16
2023-05-05T00:33:29.566Z,67.32
2023-05-05T00:33:45.030Z,67.40
2023-05-05T00:33:59.489Z,67.38
2023-05-05T00:34:16.312Z,67.67
2023-05-05T00:34:23.481Z,67.58
2023-05-05T00:34:30.682Z,67.57
2023-05-05T00:34:37.817Z,67.71
2023-05-05T00:34:46.657Z,67.51
2023-05-05T00:35:01.665Z,67.69
2023-05-05T00:35:17.117Z,67.80
2023-05-05T00:35:27.135Z,67.87
2023-05-05T00:35:34.562Z,67.68
2023-05-05T00:35:41.922Z,67.83
2023-05-05T00:35:50.989Z,67.57
2023-05-05T00:36:08.548Z,67.83
2023-05-05T00:36:22.998Z,67.81
2023-05-05T00:36:30.614Z,67.84
2023-05-05T00:36:37.833Z,67.80
2023-05-05T00:36:45.049Z,67.82
2023-05-05T00:36:52.242Z,67.91
2023-05-05T00:37:17.473Z,67.84
2023-05-05T00:37:24.866Z,67.67
2023-05-05T00:37:32.338Z,67.75
2023-05-05T00:37:39.678Z,67.54
2023-05-05T00:37:47.310Z,67.55
2023-05-05T00:37:55.755Z,67.76
2023-05-05T00:38:18.609Z,68.04
2023-05-05T00:38:25.717Z,67.96
2023-05-05T00:38:34.337Z,67.87
2023-05-05T00:38:44.143Z,67.86
2023-05-05T00:38:51.280Z,67.64
2023-05-05T00:38:58.755Z,67.74
2023-05-05T00:39:20.797Z,68.10
2023-05-05T00:39:28.398Z,67.67
2023-05-05T00:39:35.545Z,67.97
2023-05-05T00:39:44.330Z,67.78
2023-05-05T00:39:52.041Z,67.84
2023-05-05T00:39:59.994Z,67.87
2023-05-05T00:40:28.770Z,68.30
2023-05-05T00:40:36.998Z,68.24
2023-05-05T00:40:45.224Z,67.79
2023-05-05T00:40:52.704Z,67.87
2023-05-05T00:40:59.930Z,67.91
2023-05-05T00:41:07.555Z,67.61
2023-05-05T00:41:29.135Z,67.59
2023-05-05T00:41:44.039Z,67.58
2023-05-05T00:41:51.258Z,67.72
2023-05-05T00:42:01.465Z,67.81
2023-05-05T00:42:08.613Z,67.61
2023-05-05T00:42:18.123Z,67.96
2023-05-05T00:42:42.070Z,68.23
2023-05-05T00:42:50.967Z,68.48
2023-05-05T00:42:59.740Z,68.41
2023-05-05T00:43:07.854Z,68.20
2023-05-05T00:43:15.149Z,67.94
2023-05-05T00:43:22.290Z,67.87
2023-05-05T00:43:46.782Z,68.01
2023-05-05T00:43:53.974Z,68.02
2023-05-05T00:44:01.166Z,68.30
2023-05-05T00:44:09.888Z,68.02
2023-05-05T00:44:17.664Z,68.21
2023-05-05T00:44:39.552Z,68.48
2023-05-05T00:44:47.209Z,68.70
2023-05-05T00:44:54.402Z,68.56
2023-05-05T00:45:02.387Z,68.78
2023-05-05T00:45:10.836Z,68.32
2023-05-05T00:45:22.490Z,68.52
2023-05-05T00:45:42.938Z,68.47
2023-05-05T00:45:57.952Z,68.47
2023-05-05T00:46:19.490Z,68.59
2023-05-05T00:46:29.774Z,68.29
2023-05-05T00:46:40.844Z,68.65
2023-05-05T00:46:48.200Z,68.60
2023-05-05T00:46:55.470Z,68.67
2023-05-05T00:47:02.828Z,68.35
2023-05-05T00:47:20.203Z,68.44
2023-05-05T00:47:35.128Z,68.20
2023-05-05T00:47:45.508Z,68.22
2023-05-05T00:47:54.763Z,68.06
2023-05-05T00:48:02.241Z,67.99
2023-05-05T00:48:09.678Z,68.02
2023-05-05T00:48:32.819Z,67.88
2023-05-05T00:48:40.773Z,68.16
2023-05-05T00:48:48.078Z,67.92
2023-05-05T00:48:55.458Z,68.13
2023-05-05T00:49:02.932Z,67.74
2023-05-05T00:49:10.644Z,68.20
2023-05-05T00:49:36.178Z,68.13
2023-05-05T00:49:43.700Z,67.93
2023-05-05T00:49:51.504Z,68.11
2023-05-05T00:50:01.701Z,67.99
2023-05-05T00:50:10.306Z,67.84
2023-05-05T00:50:23.953Z,68.23
2023-05-05T00:50:44.231Z,68.11
2023-05-05T00:50:51.499Z,68.42
2023-05-05T00:50:59.852Z,68.52
2023-05-05T00:51:09.551Z,68.53
2023-05-05T00:51:19.693Z,68.34
2023-05-05T00:51:28.415Z,68.23
2023-05-05T00:52:10.992Z,68.50
2023-05-05T00:52:21.257Z,68.42
2023-05-05T00:52:28.582Z,68.42
2023-05-05T00:52:36.512Z,68.60
2023-05-05T00:52:43.669Z,68.34
2023-05-05T00:52:53.000Z,68.55
2023-05-05T00:53:12.434Z,68.27
2023-05-05T00:53:21.913Z,67.96
2023-05-05T00:53:29.355Z,67.79
2023-05-05T00:53:39.255Z,68.01
2023-05-05T00:53:47.080Z,68.28
2023-05-05T00:53:54.776Z,68.15
2023-05-05T00:54:18.015Z,67.97
2023-05-05T00:54:25.643Z,67.97
2023-05-05T00:54:33.683Z,68.04
2023-05-05T00:54:43.497Z,68.07
2023-05-05T00:54:52.804Z,68.11
2023-05-05T00:55:00.236Z,68.10
2023-05-05T00:55:18.262Z,67.89
2023-05-05T00:55:26.340Z,67.72
2023-05-05T00:55:35.145Z,68.02
2023-05-05T00:55:52.481Z,67.77
2023-05-05T00:55:59.782Z,67.61
2023-05-05T00:56:10.158Z,67.65
2023-05-05T00:56:19.586Z,67.78
2023-05-05T00:56:27.539Z,67.71
2023-05-05T00:56:42.069Z,67.73
2023-05-05T00:56:59.343Z,67.60
2023-05-05T00:57:08.060Z,67.72
2023-05-05T00:57:18.493Z,67.72
2023-05-05T00:57:28.747Z,67.55
2023-05-05T00:57:36.103Z,67.71
2023-05-05T00:57:46.198Z,67.43
2023-05-05T00:58:02.125Z,67.67
2023-05-05T00:58:10.203Z,67.83
2023-05-05T00:58:25.562Z,67.55
2023-05-05T00:58:32.839Z,67.65
2023-05-05T00:58:41.918Z,68.00
2023-05-05T00:58:52.531Z,67.77
2023-05-05T00:59:10.504Z,67.83
2023-05-05T00:59:19.141Z,67.73
2023-05-05T00:59:29.232Z,67.76
2023-05-05T00:59:38.390Z,67.43
2023-05-05T00:59:49.312Z,67.92
2023-05-05T00:59:57.609Z,67.62
2023-05-05T01:00:14.237Z,67.91
2023-05-05T01:00:25.773Z,67.56
2023-05-05T01:00:33.289Z,67.59
2023-05-05T01:00:40.473Z,67.79
2023-05-05T01:00:55.296Z,67.53
2023-05-05T01:01:04.849Z,67.56
2023-05-05T01:01:22.062Z,67.68
2023-05-05T01:01:30.624Z,67.87
2023-05-05T01:01:38.007Z,67.71
2023-05-05T01:01:46.206Z,68.04
2023-05-05T01:01:56.140Z,67.96
2023-05-05T01:02:13.957Z,68.07
2023-05-05T01:02:22.837Z,68.22
2023-05-05T01:02:31.350Z,68.04
2023-05-05T01:02:39.924Z,67.89
2023-05-05T01:02:47.501Z,68.11
2023-05-05T01:03:02.353Z,67.92
2023-05-05T01:03:17.072Z,67.83
2023-05-05T01:03:27.283Z,67.81
2023-05-05T01:03:36.860Z,67.70
2023-05-05T01:03:44.242Z,67.95
2023-05-05T01:03:51.603Z,68.13
2023-05-05T01:04:06.533Z,67.86
2023-05-05T01:04:21.088Z,68.06
2023-05-05T01:04:28.250Z,68.07
2023-05-05T01:04:42.555Z,68.00
2023-05-05T01:04:49.748Z,68.28
2023-05-05T01:05:00.470Z,68.13
2023-05-05T01:05:09.040Z,67.90
2023-05-05T01:05:27.201Z,67.85
2023-05-05T01:05:53.488Z,67.72
2023-05-05T01:06:16.423Z,67.96
2023-05-05T01:06:41.106Z,67.69
2023-05-05T01:07:02.255Z,67.85
2023-05-05T01:07:22.467Z,67.96
2023-05-05T01:07:40.441Z,68.44
2023-05-05T01:08:03.724Z,68.54
2023-05-05T01:08:30.578Z,68.83
2023-05-05T01:08:51.475Z,68.78
2023-05-05T01:09:07.873Z,68.90
2023-05-05T01:09:26.565Z,68.77
2023-05-05T01:09:46.418Z,68.77
2023-05-05T01:10:17.984Z,68.82
2023-05-05T01:10:34.162Z,68.75
2023-05-05T01:10:46.406Z,68.53
2023-05-05T01:10:58.260Z,68.71
2023-05-05T01:11:12.778Z,68.69
2023-05-05T01:11:27.302Z,68.72
2023-05-05T01:11:45.702Z,69.00
2023-05-05T01:12:01.438Z,68.90
2023-05-05T01:12:18.181Z,69.21
2023-05-05T01:12:37.521Z,69.29
2023-05-05T01:12:58.426Z,69.52
2023-05-05T01:13:23.098Z,69.40
2023-05-05T01:13:40.547Z,69.73
2023-05-05T01:13:58.186Z,69.27
2023-05-05T01:14:13.793Z,68.97
2023-05-05T01:14:28.814Z,69.15
2023-05-05T01:14:40.380Z,69.19
2023-05-05T01:15:01.495Z,69.54
2023-05-05T01:15:21.145Z,69.97
2023-05-05T01:15:33.634Z,70.02
2023-05-05T01:15:46.541Z,69.98
2023-05-05T01:16:02.101Z,70.23
2023-05-05T01:16:15.176Z,70.33
2023-05-05T01:16:27.172Z,70.12
2023-05-05T01:16:42.279Z,69.98
2023-05-05T01:16:57.448Z,70.31
2023-05-05T01:17:14.176Z,70.28
2023-05-05T01:17:27.083Z,70.35
2023-05-05T01:17:41.982Z,70.14
2023-05-05T01:17:59.446Z,70.59
2023-05-05T01:18:15.176Z,70.52
2023-05-05T01:18:32.036Z,70.57
2023-05-05T01:18:46.441Z,70.86
2023-05-05T01:19:01.140Z,70.73
2023-05-05T01:19:28.946Z,70.73
2023-05-05T01:20:06.157Z,70.51
2023-05-05T01:20:21.765Z,70.55
2023-05-05T01:20:36.374Z,70.61
2023-05-05T01:20:49.918Z,70.69
2023-05-05T01:21:09.562Z,70.59
2023-05-05T01:21:23.849Z,70.89
2023-05-05T01:21:36.319Z,70.80
2023-05-05T01:21:48.748Z,70.87
2023-05-05T01:22:00.787Z,70.63
2023-05-05T01:22:11.436Z,70.58
2023-05-05T01:22:23.392Z,70.34
2023-05-05T01:22:40.830Z,70.65
2023-05-05T01:22:57.379Z,70.13
2023-05-05T01:23:07.685Z,70.26
2023-05-05T01:23:25.172Z,70.15
2023-05-05T01:23:53.339Z,70.32
2023-05-05T01:24:29.367Z,70.39
2023-05-05T01:24:57.255Z,70.60
2023-05-05T01:25:22.763Z,70.43
2023-05-05T01:26:23.560Z,70.70
2023-05-05T01:26:51.457Z,70.70
2023-05-05T01:27:27.445Z,71.08
2023-05-05T01:28:00.894Z,71.16
2023-05-05T01:28:27.148Z,71.33
2023-05-05T01:29:01.714Z,71.56
2023-05-05T01:29:30.488Z,71.25
2023-05-05T01:30:06.795Z,71.76
2023-05-05T01:30:43.430Z,71.57
2023-05-05T01:31:06.860Z,71.30
2023-05-05T01:31:33.252Z,71.61
2023-05-05T01:31:52.097Z,71.89
2023-05-05T01:32:03.628Z,72.11
2023-05-05T01:32:13.822Z,72.01
2023-05-05T01:32:25.924Z,72.12
2023-05-05T01:32:38.846Z,72.18
2023-05-05T01:32:51.229Z,72.19
2023-05-05T01:33:04.204Z,72.39
2023-05-05T01:33:18.692Z,72.24
2023-05-05T01:33:29.299Z,72.27
2023-05-05T01:33:44.345Z,72.39
2023-05-05T01:33:57.598Z,72.44
2023-05-05T01:34:09.348Z,72.29
2023-05-05T01:34:21.112Z,72.33
2023-05-05T01:34:35.194Z,72.60
2023-05-05T01:34:49.704Z,72.23
2023-05-05T01:35:02.758Z,72.54
2023-05-05T01:35:18.550Z,72.51
2023-05-05T01:35:30.139Z,72.69
2023-05-05T01:35:42.520Z,72.82
2023-05-05T01:35:55.098Z,72.56
2023-05-05T01:36:07.858Z,72.46
2023-05-05T01:36:24.567Z,72.50
2023-05-05T01:36:37.484Z,72.70
2023-05-05T01:36:58.847Z,72.74
2023-05-05T01:37:11.818Z,72.95
2023-05-05T01:37:24.913Z,72.77
2023-05-05T01:37:41.542Z,72.66
2023-05-05T01:37:58.248Z,72.99
2023-05-05T01:38:12.093Z,72.88
2023-05-05T01:38:23.297Z,72.88
2023-05-05T01:38:37.261Z,72.88
2023-05-05T01:38:49.241Z,73.10
2023-05-05T01:39:02.405Z,73.03
2023-05-05T01:39:16.268Z,73.55
2023-05-05T01:39:28.076Z,73.19
2023-05-05T01:39:39.649Z,73.67
2023-05-05T01:39:53.375Z,73.52
2023-05-05T01:40:06.405Z,73.48
2023-05-05T01:40:18.520Z,73.54
2023-05-05T01:40:32.865Z,73.35
2023-05-05T01:40:46.020Z,73.16
2023-05-05T01:41:02.028Z,73.23
2023-05-05T01:41:15.568Z,73.25
2023-05-05T01:41:29.557Z,73.21
2023-05-05T01:41:43.382Z,73.66
2023-05-05T01:41:53.001Z,73.52
2023-05-05T01:42:05.465Z,73.92
2023-05-05T01:42:15.161Z,73.65
2023-05-05T01:42:24.234Z,74.00
2023-05-05T01:42:35.513Z,73.87
2023-05-05T01:42:44.788Z,73.67
2023-05-05T01:42:57.196Z,74.01
2023-05-05T01:43:08.386Z,73.89
2023-05-05T01:43:20.400Z,74.33
2023-05-05T01:43:31.422Z,74.18
2023-05-05T01:43:44.117Z,73.98
2023-05-05T01:43:53.909Z,74.32
2023-05-05T01:44:06.011Z,74.08
2023-05-05T01:44:16.690Z,74.08
2023-05-05T01:44:26.632Z,74.13
2023-05-05T01:44:36.710Z,74.01
2023-05-05T01:44:45.614Z,74.29
2023-05-05T01:44:56.704Z,74.41
2023-05-05T01:45:08.282Z,74.50
2023-05-05T01:45:21.347Z,74.38
2023-05-05T01:45:35.186Z,74.84
2023-05-05T01:45:45.248Z,74.35
2023-05-05T01:45:54.429Z,74.62
2023-05-05T01:46:03.812Z,74.59
2023-05-05T01:46:12.614Z,74.70
2023-05-05T01:46:23.954Z,74.63
2023-05-05T01:46:35.183Z,74.65
2023-05-05T01:46:53.628Z,74.53
2023-05-05T01:47:01.948Z,74.76
2023-05-05T01:47:14.826Z,74.70
2023-05-05T01:47:24.225Z,74.45
2023-05-05T01:47:32.999Z,74.70
2023-05-05T01:47:42.911Z,74.94
2023-05-05T01:48:02.508Z,74.78
2023-05-05T01:48:12.631Z,75.04
2023-05-05T01:48:20.850Z,75.13
2023-05-05T01:48:30.068Z,74.94
2023-05-05T01:48:40.329Z,74.94
2023-05-05T01:48:52.001Z,74.93
2023-05-05T01:49:10.245Z,75.14
2023-05-05T01:49:17.672Z,75.03
2023-05-05T01:49:26.453Z,75.17
2023-05-05T01:49:35.770Z,74.99
2023-05-05T01:49:44.796Z,74.78
2023-05-05T01:49:52.956Z,75.06
2023-05-05T01:50:14.160Z,75.22
2023-05-05T01:50:25.263Z,74.92
2023-05-05T01:50:33.069Z,75.19
2023-05-05T01:50:43.407Z,75.14
2023-05-05T01:50:52.328Z,75.24
2023-05-05T01:51:02.352Z,75.16
2023-05-05T01:51:23.786Z,75.67
2023-05-05T01:51:32.017Z,75.65
2023-05-05T01:51:40.992Z,75.67
2023-05-05T01:51:50.256Z,75.56
2023-05-05T01:51:59.069Z,75.79
2023-05-05T01:52:09.919Z,75.81
2023-05-05T01:52:27.182Z,76.02
2023-05-05T01:52:36.208Z,75.95
2023-05-05T01:52:45.922Z,76.17
2023-05-05T01:52:54.794Z,76.15
2023-05-05T01:53:03.766Z,76.14
2023-05-05T01:53:12.249Z,76.20
2023-05-05T01:53:31.555Z,75.88
2023-05-05T01:53:39.721Z,76.42
2023-05-05T01:53:47.408Z,76.01
2023-05-05T01:54:02.898Z,76.10
2023-05-05T01:54:11.028Z,76.52
2023-05-05T01:54:20.292Z,76.22
2023-05-05T01:54:38.540Z,76.53
2023-05-05T01:54:46.901Z,76.30
2023-05-05T01:54:55.140Z,76.58
2023-05-05T01:55:04.791Z,76.54
2023-05-05T01:55:12.582Z,76.57
2023-05-05T01:55:27.346Z,76.62
2023-05-05T01:55:46.421Z,76.83
2023-05-05T01:55:57.550Z,77.09
2023-05-05T01:56:08.660Z,77.07
2023-05-05T01:56:17.009Z,77.17
2023-05-05T01:56:27.707Z,77.20
2023-05-05T01:56:37.879Z,77.35
2023-05-05T01:56:49.316Z,77.40
2023-05-05T01:56:59.418Z,77.32
2023-05-05T01:57:08.807Z,77.21
2023-05-05T01:57:18.151Z,77.47
2023-05-05T01:57:34.110Z,77.40
2023-05-05T01:57:43.223Z,77.45
2023-05-05T01:57:51.612Z,77.45
2023-05-05T01:58:00.077Z,77.51
2023-05-05T01:58:10.145Z,77.60
2023-05-05T01:58:18.567Z,77.63
2023-05-05T01:58:39.025Z,77.73
2023-05-05T01:58:47.595Z,77.77
2023-05-05T01:59:01.240Z,77.78
2023-05-05T01:59:10.141Z,77.67
2023-05-05T01:59:18.316Z,77.69
2023-05-05T01:59:26.863Z,77.65
2023-05-05T01:59:43.862Z,77.89
2023-05-05T01:59:52.780Z,77.93
2023-05-05T02:00:03.720Z,77.95
2023-05-05T02:00:27.197Z,78.44
2023-05-05T02:00:35.459Z,78.51
2023-05-05T02:00:44.293Z,78.34
2023-05-05T02:00:52.936Z,78.44
2023-05-05T02:01:01.432Z,78.62
2023-05-05T02:01:10.710Z,78.38
2023-05-05T02:01:29.712Z,78.37
2023-05-05T02:01:41.705Z,78.57
2023-05-05T02:01:52.271Z,78.48
2023-05-05T02:02:04.010Z,78.72
2023-05-05T02:02:13.788Z,78.54
2023-05-05T02:02:22.924Z,78.63
2023-05-05T02:02:31.715Z,79.01
2023-05-05T02:02:50.106Z,79.19
2023-05-05T02:03:00.004Z,79.07
2023-05-05T02:03:09.394Z,79.27
2023-05-05T02:03:18.409Z,79.18
2023-05-05T02:03:27.893Z,79.21
2023-05-05T02:03:41.740Z,79.31
2023-05-05T02:03:51.508Z,79.36
2023-05-05T02:04:00.026Z,79.56
2023-05-05T02:04:10.016Z,79.40
2023-05-05T02:04:22.897Z,79.21
2023-05-05T02:04:32.415Z,79.36
2023-05-05T02:04:44.035Z,79.15
2023-05-05T02:04:53.257Z,79.18
2023-05-05T02:05:01.931Z,79.42
2023-05-05T02:05:13.186Z,79.47
2023-05-05T02:05:22.995Z,79.58
2023-05-05T02:05:41.025Z,79.82
2023-05-05T02:05:49.543Z,79.59
2023-05-05T02:05:58.594Z,79.68
2023-05-05T02:06:08.649Z,79.90
2023-05-05T02:06:17.678Z,79.84
2023-05-05T02:06:27.045Z,79.85
2023-05-05T02:06:50.627Z,79.96
2023-05-05T02:07:01.748Z,79.81
2023-05-05T02:07:11.416Z,79.79
2023-05-05T02:07:20.079Z,79.96
2023-05-05T02:07:28.480Z,80.16
2023-05-05T02:07:36.971Z,80.24
2023-05-05T02:07:59.827Z,80.37
2023-05-05T02:08:10.002Z,80.05
2023-05-05T02:08:21.125Z,80.48
2023-05-05T02:08:31.083Z,80.57
2023-05-05T02:08:43.272Z,80.24
2023-05-05T02:08:51.704Z,80.56
2023-05-05T02:09:01.754Z,80.60
2023-05-05T02:09:13.193Z,80.47
2023-05-05T02:09:21.897Z,80.80
2023-05-05T02:09:32.997Z,80.71
2023-05-05T02:09:45.276Z,80.79
2023-05-05T02:09:53.419Z,80.82
2023-05-05T02:10:13.823Z,80.66
2023-05-05T02:10:21.348Z,80.98
2023-05-05T02:10:31.238Z,81.05
2023-05-05T02:10:41.062Z,81.39
2023-05-05T02:10:49.863Z,81.46
2023-05-05T02:10:58.055Z,81.25
2023-05-05T02:11:17.520Z,81.37
2023-05-05T02:11:30.818Z,81.38
2023-05-05T02:11:39.308Z,81.51
2023-05-05T02:11:46.675Z,81.54
2023-05-05T02:11:55.392Z,81.59
2023-05-05T02:12:07.953Z,81.65
2023-05-05T02:12:24.882Z,81.43
2023-05-05T02:12:33.646Z,81.17
2023-05-05T02:12:42.867Z,81.11
2023-05-05T02:12:52.440Z,81.29
2023-05-05T02:13:01.994Z,81.24
2023-05-05T02:13:15.535Z,81.42
2023-05-05T02:13:25.151Z,81.56
2023-05-05T02:13:43.112Z,81.46
2023-05-05T02:13:56.209Z,81.27
2023-05-05T02:14:05.603Z,81.55
2023-05-05T02:14:14.204Z,81.59
2023-05-05T02:14:25.060Z,81.75
2023-05-05T02:14:33.791Z,81.41
2023-05-05T02:14:43.225Z,81.41
2023-05-05T02:15:01.779Z,81.63
2023-05-05T02:15:11.428Z,81.73
2023-05-05T02:15:23.000Z,81.74
2023-05-05T02:15:34.596Z,81.79
2023-05-05T02:15:43.533Z,82.06
2023-05-05T02:15:51.479Z,81.91
2023-05-05T02:16:02.319Z,82.24
2023-05-05T02:16:13.517Z,82.29
2023-05-05T02:16:31.359Z,82.14
2023-05-05T02:16:41.424Z,82.30
2023-05-05T02:16:52.046Z,82.46
2023-05-05T02:17:04.821Z,82.62
2023-05-05T02:17:13.631Z,82.64
2023-05-05T02:17:23.599Z,82.44
2023-05-05T02:17:33.072Z,82.40
2023-05-05T02:17:42.847Z,82.52
2023-05-05T02:17:53.027Z,82.33
2023-05-05T02:18:10.163Z,82.40
2023-05-05T02:18:20.957Z,82.46
2023-05-05T02:18:28.807Z,82.42
2023-05-05T02:18:37.136Z,82.84
2023-05-05T02:18:47.419Z,82.79
2023-05-05T02:18:57.773Z,82.68
2023-05-05T02:19:15.137Z,83.20
2023-05-05T02:19:28.083Z,83.32
2023-05-05T02:19:42.480Z,83.28
2023-05-05T02:19:56.069Z,83.34
2023-05-05T02:20:06.417Z,83.42
2023-05-05T02:20:15.293Z,83.49
2023-05-05T02:20:24.526Z,83.56
2023-05-05T02:20:32.552Z,83.74
2023-05-05T02:20:48.404Z,83.70
2023-05-05T02:20:56.128Z,83.57
2023-05-05T02:21:18.184Z,83.82
2023-05-05T02:21:25.930Z,84.04
2023-05-05T02:21:34.460Z,84.34
2023-05-05T02:21:43.365Z,84.02
2023-05-05T02:21:55.022Z,84.26
2023-05-05T02:22:02.854Z,84.11
2023-05-05T02:22:24.924Z,84.48
2023-05-05T02:22:35.038Z,84.33
2023-05-05T02:22:44.288Z,84.42
2023-05-05T02:22:51.449Z,84.54
2023-05-05T02:23:01.196Z,84.26
2023-05-05T02:23:09.163Z,84.78
2023-05-05T02:23:25.934Z,84.42
2023-05-05T02:23:41.335Z,84.74
2023-05-05T02:23:52.180Z,84.53
2023-05-05T02:24:03.815Z,84.85
2023-05-05T02:24:11.704Z,85.06
2023-05-05T02:24:18.901Z,84.82
2023-05-05T02:24:26.646Z,84.87
2023-05-05T02:24:48.290Z,85.03
2023-05-05T02:25:00.322Z,85.08
2023-05-05T02:25:09.452Z,85.49
2023-05-05T02:25:20.244Z,85.39
2023-05-05T02:25:38.893Z,85.52
2023-05-05T02:25:53.264Z,85.60
2023-05-05T02:26:05.143Z,85.77
2023-05-05T02:26:16.202Z,85.70
2023-05-05T02:26:26.389Z,85.65
2023-05-05T02:26:36.351Z,85.76
2023-05-05T02:26:46.726Z,85.55
2023-05-05T02:27:01.456Z,85.77
2023-05-05T02:27:11.091Z,85.84
2023-05-05T02:27:23.369Z,85.69
2023-05-05T02:27:34.197Z,85.87
2023-05-05T02:27:43.621Z,85.98
2023-05-05T02:27:56.281Z,85.94
2023-05-05T02:28:05.070Z,86.15
2023-05-05T02:28:19.120Z,86.38
2023-05-05T02:28:33.779Z,86.63
2023-05-05T02:28:49.099Z,86.49
2023-05-05T02:29:04.214Z,86.85
2023-05-05T02:29:18.428Z,86.72
2023-05-05T02:29:35.336Z,86.96
2023-05-05T02:29:49.445Z,87.04
2023-05-05T02:30:02.505Z,86.73
2023-05-05T02:30:15.581Z,86.98
2023-05-05T02:30:24.209Z,86.87
2023-05-05T02:30:34.545Z,87.24
2023-05-05T02:30:43.801Z,87.28
2023-05-05T02:30:57.165Z,87.44
2023-05-05T02:31:07.434Z,87.33
2023-05-05T02:31:17.543Z,87.30
2023-05-05T02:31:28.155Z,87.25
2023-05-05T02:31:40.872Z,87.44
2023-05-05T02:31:57.141Z,87.54
2023-05-05T02:32:14.658Z,87.15
2023-05-05T02:32:27.780Z,87.86
2023-05-05T02:32:39.833Z,87.66
2023-05-05T02:32:56.448Z,87.78
2023-05-05T02:33:09.618Z,87.71
2023-05-05T02:33:20.497Z,87.77
2023-05-05T02:33:36.569Z,87.70
2023-05-05T02:33:48.683Z,87.98
2023-05-05T02:33:58.298Z,87.89
2023-05-05T02:34:08.405Z,87.86
2023-05-05T02:34:22.793Z,87.97
2023-05-05T02:34:33.389Z,87.83
2023-05-05T02:34:43.131Z,87.81
2023-05-05T02:34:57.956Z,87.72
2023-05-05T02:35:14.333Z,87.44
2023-05-05T02:35:30.016Z,87.79
2023-05-05T02:35:40.593Z,87.97
2023-05-05T02:35:54.768Z,87.62
2023-05-05T02:36:13.928Z,88.05
2023-05-05T02:36:37.715Z,87.88
2023-05-05T02:36:46.684Z,87.68
2023-05-05T02:36:58.860Z,87.46
2023-05-05T02:37:13.129Z,87.16